Time;durP1;ratioP1;P1;durP2;ratioP2;P2;SDS_P1;SDS_P2;PMS_P1;PMS_P2;Temp;Humidity;BMP_temperature;BMP_pressure;BME280_temperature;BME280_humidity;BME280_pressure;Samples;Min_cycle;Max_cycle;Signal;HPM_P1;HPM_P2
2021/11/13 00:01:58;;;;;;;28.13;14.50;;;8.40;68.40;;;;;;5057890;28;20024;-38
2021/11/13 00:04:23;;;;;;;23.90;13.32;;;8.40;68.40;;;;;;5058661;28;20040;-37
2021/11/13 00:06:49;;;;;;;24.45;14.55;;;8.40;68.40;;;;;;5057678;28;20056;-37
2021/11/13 00:09:15;;;;;;;27.20;14.27;;;8.40;68.40;;;;;;5058342;28;20452;-38
2021/11/13 00:11:41;;;;;;;26.85;14.43;;;8.40;68.20;;;;;;5057719;28;20075;-37
2021/11/13 00:14:12;;;;;;;22.27;14.02;;;8.40;68.10;;;;;;5058288;28;20025;-37
2021/11/13 00:16:39;;;;;;;24.95;14.65;;;8.40;68.10;;;;;;5057642;28;20041;-37
2021/11/13 00:19:04;;;;;;;25.50;13.32;;;8.40;68.10;;;;;;5058192;28;20031;-39
2021/11/13 00:21:30;;;;;;;29.45;13.70;;;8.30;68.10;;;;;;5057576;28;20033;-37
2021/11/13 00:23:56;;;;;;;25.08;13.50;;;8.30;68.10;;;;;;5058232;28;20033;-38
2021/11/13 00:26:22;;;;;;;25.35;13.52;;;8.30;68.10;;;;;;5057360;28;20035;-37
2021/11/13 00:28:49;;;;;;;28.80;15.63;;;8.30;68.20;;;;;;5056675;28;20111;-37
2021/11/13 00:31:14;;;;;;;22.77;13.18;;;8.30;68.20;;;;;;5057415;28;20029;-39
2021/11/13 00:33:40;;;;;;;26.60;14.55;;;8.30;68.30;;;;;;5057570;28;20033;-40
2021/11/13 00:36:06;;;;;;;25.27;13.77;;;8.30;68.20;;;;;;5057665;28;20029;-40
2021/11/13 00:38:31;;;;;;;26.25;13.88;;;8.30;68.30;;;;;;5057879;28;20025;-37
2021/11/13 00:40:57;;;;;;;23.50;13.68;;;8.30;68.40;;;;;;5057508;28;20025;-38
2021/11/13 00:43:23;;;;;;;22.52;12.68;;;8.30;68.30;;;;;;5057707;28;20083;-39
2021/11/13 00:45:49;;;;;;;25.35;12.98;;;8.30;68.30;;;;;;5057630;28;20388;-39
2021/11/13 00:48:15;;;;;;;23.50;13.48;;;8.30;68.30;;;;;;5056888;28;20112;-40
2021/11/13 00:50:40;;;;;;;24.90;13.38;;;8.30;68.20;;;;;;5057296;28;20027;-39
2021/11/13 00:53:06;;;;;;;27.73;14.82;;;8.30;68.40;;;;;;5056858;28;20079;-40
2021/11/13 00:55:32;;;;;;;28.25;14.77;;;8.30;68.40;;;;;;5057209;28;20116;-37
2021/11/13 00:57:58;;;;;;;30.40;15.23;;;8.30;68.60;;;;;;5057177;28;20056;-40
2021/11/13 01:00:24;;;;;;;29.38;15.82;;;8.20;68.60;;;;;;5057483;28;20078;-40
2021/11/13 01:02:50;;;;;;;33.90;17.02;;;8.20;68.60;;;;;;5056790;28;20036;-40
2021/11/13 01:05:17;;;;;;;26.88;15.50;;;8.20;68.60;;;;;;5056894;28;20037;-37
2021/11/13 01:07:44;;;;;;;27.15;14.75;;;8.10;68.80;;;;;;5056689;28;20029;-39
2021/11/13 01:10:11;;;;;;;28.75;15.93;;;8.10;68.90;;;;;;5057405;28;20044;-38
2021/11/13 01:12:37;;;;;;;34.95;16.70;;;8.10;68.90;;;;;;5056589;28;20028;-38
2021/11/13 01:15:05;;;;;;;34.70;17.20;;;8.10;69.00;;;;;;5057372;28;20037;-37
2021/11/13 01:17:31;;;;;;;32.60;16.50;;;8.10;69.10;;;;;;5056504;28;20025;-38
2021/11/13 01:19:57;;;;;;;36.35;16.70;;;8.10;69.20;;;;;;5057122;28;20040;-38
2021/11/13 01:22:23;;;;;;;37.55;17.80;;;8.10;69.20;;;;;;5056896;28;20037;-37
2021/11/13 01:24:49;;;;;;;30.30;16.73;;;8.10;69.20;;;;;;5056946;28;20044;-38
2021/11/13 01:27:15;;;;;;;28.42;15.02;;;8.00;69.20;;;;;;5056566;28;20024;-38
2021/11/13 01:29:41;;;;;;;23.38;12.68;;;8.00;69.30;;;;;;5056975;28;20111;-38
2021/11/13 01:32:08;;;;;;;27.15;14.23;;;8.00;69.30;;;;;;5056349;28;20028;-39
2021/11/13 01:34:34;;;;;;;25.55;13.40;;;7.90;69.30;;;;;;5056721;28;20087;-37
2021/11/13 01:36:59;;;;;;;25.42;13.27;;;8.00;69.30;;;;;;5056415;28;20025;-37
2021/11/13 01:39:25;;;;;;;25.70;14.05;;;7.90;69.00;;;;;;5056005;28;20119;-37
2021/11/13 01:41:59;;;;;;;25.98;14.88;;;7.90;69.10;;;;;;5055918;28;20047;-39
2021/11/13 01:44:25;;;;;;;24.13;14.15;;;8.00;69.30;;;;;;5056763;28;20044;-40
2021/11/13 01:46:51;;;;;;;28.80;14.93;;;7.90;69.30;;;;;;5056139;28;20328;-39
2021/11/13 01:49:18;;;;;;;28.35;15.23;;;7.90;69.20;;;;;;5056533;28;20044;-38
2021/11/13 01:51:46;;;;;;;29.83;15.57;;;7.90;69.30;;;;;;5056133;28;20025;-38
2021/11/13 01:54:12;;;;;;;26.40;14.52;;;7.90;69.40;;;;;;5056363;28;20043;-40
2021/11/13 01:56:39;;;;;;;25.77;14.18;;;7.90;69.50;;;;;;5055987;28;20421;-38
2021/11/13 01:59:06;;;;;;;26.77;13.48;;;7.90;69.60;;;;;;5056510;28;20037;-40
2021/11/13 02:01:33;;;;;;;24.45;12.73;;;7.90;69.70;;;;;;5055724;28;20056;-38
2021/11/13 02:03:59;;;;;;;23.98;12.80;;;7.90;69.60;;;;;;5056112;28;20040;-41
2021/11/13 02:06:25;;;;;;;22.80;11.77;;;7.90;69.40;;;;;;5055900;28;20091;-39
2021/11/13 02:08:52;;;;;;;23.15;12.07;;;7.90;69.40;;;;;;5055975;28;20314;-38
2021/11/13 02:11:24;;;;;;;24.75;12.88;;;8.00;69.40;;;;;;5055797;28;20441;-37
2021/11/13 02:13:51;;;;;;;21.58;11.95;;;8.00;69.50;;;;;;5055976;28;20032;-39
2021/11/13 02:16:17;;;;;;;24.92;13.05;;;7.90;69.40;;;;;;5055800;28;20137;-37
2021/11/13 02:18:43;;;;;;;25.40;13.38;;;7.90;69.40;;;;;;5056123;28;20041;-39
2021/11/13 02:21:10;;;;;;;24.05;13.23;;;7.90;69.60;;;;;;5055373;28;20025;-37
2021/11/13 02:23:38;;;;;;;20.40;11.93;;;7.90;69.70;;;;;;5055723;28;20045;-37
2021/11/13 02:26:05;;;;;;;22.00;12.15;;;7.90;69.90;;;;;;5055542;28;20033;-37
2021/11/13 02:28:35;;;;;;;20.40;11.80;;;7.90;69.90;;;;;;5055757;28;20344;-38
2021/11/13 02:31:03;;;;;;;25.73;12.23;;;7.90;69.80;;;;;;5055822;28;20091;-38
2021/11/13 02:33:30;;;;;;;21.98;12.65;;;7.90;69.60;;;;;;5055552;28;20178;-38
2021/11/13 02:35:58;;;;;;;24.83;12.88;;;7.90;69.70;;;;;;5055769;28;20029;-38
2021/11/13 02:38:29;;;;;;;22.33;11.35;;;7.80;69.80;;;;;;5055641;28;20111;-40
2021/11/13 02:40:58;;;;;;;23.13;13.20;;;7.80;69.90;;;;;;5055548;28;20029;-37
2021/11/13 02:43:27;;;;;;;26.92;14.07;;;7.80;69.80;;;;;;5055648;28;20045;-40
2021/11/13 02:45:56;;;;;;;28.25;14.90;;;7.80;69.90;;;;;;5055434;28;20032;-39
2021/11/13 02:48:26;;;;;;;24.88;13.40;;;7.80;70.00;;;;;;5055648;28;20311;-40
2021/11/13 02:50:52;;;;;;;26.60;15.40;;;7.80;70.10;;;;;;5055536;28;20358;-39
2021/11/13 02:53:24;;;;;;;28.38;15.85;;;7.80;70.00;;;;;;5059319;28;20048;-40
2021/11/13 02:55:51;;;;;;;34.88;16.63;;;7.80;70.00;;;;;;5059407;28;20025;-40
2021/11/13 02:58:18;;;;;;;27.52;14.25;;;7.80;70.00;;;;;;5059217;28;20108;-39
2021/11/13 03:00:45;;;;;;;29.92;14.52;;;7.80;70.10;;;;;;5059675;28;20025;-38
2021/11/13 03:03:16;;;;;;;31.13;15.18;;;7.70;70.20;;;;;;5059050;28;20033;-40
2021/11/13 03:05:48;;;;;;;28.10;14.85;;;7.80;70.20;;;;;;5059572;28;20055;-38
2021/11/13 03:08:25;;;;;;;29.60;14.82;;;7.80;70.20;;;;;;5059193;28;20033;-39
2021/11/13 03:10:51;;;;;;;28.27;14.60;;;7.80;70.10;;;;;;5059122;28;20041;-40
2021/11/13 03:13:18;;;;;;;33.47;16.02;;;7.80;70.00;;;;;;5059188;28;20124;-38
2021/11/13 03:15:43;;;;;;;36.78;17.63;;;7.80;69.90;;;;;;5059089;28;20409;-38
2021/11/13 03:18:09;;;;;;;41.50;16.83;;;7.80;69.90;;;;;;5058830;28;20032;-39
2021/11/13 03:20:35;;;;;;;32.58;17.08;;;7.80;69.90;;;;;;5059308;28;20037;-39
2021/11/13 03:23:01;;;;;;;34.40;16.92;;;7.80;69.90;;;;;;5058679;28;20037;-40
2021/11/13 03:25:33;;;;;;;35.47;16.15;;;7.80;69.90;;;;;;5059171;28;20317;-39
2021/11/13 03:28:01;;;;;;;34.63;16.67;;;7.80;69.80;;;;;;5058487;28;20049;-40
2021/11/13 03:30:27;;;;;;;32.15;15.55;;;7.80;69.90;;;;;;5058774;28;20072;-37
2021/11/13 03:32:54;;;;;;;34.47;16.85;;;7.80;70.00;;;;;;5058153;28;20425;-37
2021/11/13 03:35:27;;;;;;;36.75;16.85;;;7.80;70.00;;;;;;5058978;28;20413;-39
2021/11/13 03:37:55;;;;;;;37.90;17.77;;;7.80;70.00;;;;;;5058793;28;20157;-39
2021/11/13 03:40:21;;;;;;;35.17;18.23;;;7.80;69.90;;;;;;5058983;28;20439;-39
2021/11/13 03:42:47;;;;;;;33.42;17.58;;;7.80;69.90;;;;;;5058165;28;20321;-39
2021/11/13 03:45:13;;;;;;;32.70;18.42;;;7.80;70.00;;;;;;5057660;28;20045;-39
2021/11/13 03:47:38;;;;;;;32.78;16.85;;;7.80;70.00;;;;;;5058319;28;20029;-37
2021/11/13 03:50:05;;;;;;;34.42;18.63;;;7.80;70.00;;;;;;5058974;28;20041;-40
2021/11/13 03:52:31;;;;;;;37.17;19.75;;;7.80;70.10;;;;;;5058171;28;20029;-39
2021/11/13 03:54:57;;;;;;;37.35;20.63;;;7.80;70.10;;;;;;5057373;28;20037;-39
2021/11/13 03:57:23;;;;;;;32.45;18.45;;;7.80;70.20;;;;;;5058109;28;20467;-38
2021/11/13 03:59:49;;;;;;;40.40;18.10;;;7.70;70.20;;;;;;5058679;28;20128;-38
2021/11/13 04:02:15;;;;;;;35.58;17.33;;;7.80;70.20;;;;;;5058159;28;20319;-39
2021/11/13 04:04:42;;;;;;;37.17;19.63;;;7.80;70.20;;;;;;5058452;28;20066;-38
2021/11/13 04:07:08;;;;;;;33.65;18.95;;;7.80;70.10;;;;;;5058089;28;20025;-41
2021/11/13 04:09:35;;;;;;;35.35;19.25;;;7.80;70.20;;;;;;5058410;28;20076;-38
2021/11/13 04:12:06;;;;;;;32.38;18.30;;;7.80;70.30;;;;;;5057816;28;20044;-38
2021/11/13 04:14:36;;;;;;;38.78;18.75;;;7.80;70.70;;;;;;5058489;28;20502;-37
2021/11/13 04:17:03;;;;;;;30.90;17.42;;;7.70;70.20;;;;;;5057837;28;20167;-40
2021/11/13 04:19:29;;;;;;;35.00;19.80;;;7.70;70.30;;;;;;5058355;28;20405;-40
2021/11/13 04:21:55;;;;;;;36.15;18.75;;;7.70;70.40;;;;;;5057676;28;20114;-40
2021/11/13 04:24:22;;;;;;;39.00;18.23;;;7.70;70.40;;;;;;5058083;28;20437;-37
2021/11/13 04:26:48;;;;;;;40.47;20.27;;;7.70;70.30;;;;;;5057701;28;20040;-38
2021/11/13 04:29:13;;;;;;;34.30;17.83;;;7.70;70.30;;;;;;5058073;28;20332;-37
2021/11/13 04:31:39;;;;;;;37.38;18.45;;;7.70;70.40;;;;;;5057416;28;20036;-38
2021/11/13 04:34:08;;;;;;;38.42;18.83;;;7.70;70.40;;;;;;5057928;28;20127;-37
2021/11/13 04:36:43;;;;;;;34.80;19.13;;;7.70;70.50;;;;;;5057538;28;20463;-37
2021/11/13 04:39:10;;;;;;;38.63;20.02;;;7.60;70.50;;;;;;5057745;28;20095;-37
2021/11/13 04:41:37;;;;;;;39.85;17.05;;;7.60;70.50;;;;;;5057060;28;20380;-38
2021/11/13 04:44:03;;;;;;;33.30;18.30;;;7.60;70.50;;;;;;5057581;28;20037;-40
2021/11/13 04:46:29;;;;;;;43.13;22.90;;;7.50;70.50;;;;;;5056799;28;20025;-38
2021/11/13 04:48:55;;;;;;;46.70;19.77;;;7.50;70.50;;;;;;5057451;28;20045;-39
2021/11/13 04:51:21;;;;;;;43.25;19.35;;;7.50;70.50;;;;;;5057161;28;20083;-40
2021/11/13 04:53:47;;;;;;;36.05;19.45;;;7.50;70.60;;;;;;5057292;28;20068;-40
2021/11/13 04:56:13;;;;;;;41.40;19.98;;;7.40;70.60;;;;;;5057226;28;20040;-39
2021/11/13 04:58:38;;;;;;;42.25;20.58;;;7.40;70.70;;;;;;5057239;28;20040;-38
2021/11/13 05:01:05;;;;;;;33.53;18.42;;;7.30;70.80;;;;;;5056990;28;20318;-38
2021/11/13 05:03:31;;;;;;;35.88;18.38;;;7.30;70.90;;;;;;5056005;28;20367;-40
2021/11/13 05:05:57;;;;;;;39.80;20.67;;;7.30;70.90;;;;;;5057092;28;20108;-38
2021/11/13 05:08:22;;;;;;;41.28;21.80;;;7.30;71.10;;;;;;5056870;28;20428;-38
2021/11/13 05:10:49;;;;;;;35.15;19.25;;;7.20;71.20;;;;;;5057243;28;20029;-38
2021/11/13 05:13:17;;;;;;;39.65;19.98;;;7.20;71.30;;;;;;5056726;28;20041;-40
2021/11/13 05:15:43;;;;;;;39.08;19.38;;;7.20;71.30;;;;;;5056636;28;20024;-38
2021/11/13 05:18:08;;;;;;;45.67;21.55;;;7.20;71.50;;;;;;5056251;28;20029;-39
2021/11/13 05:20:34;;;;;;;41.15;20.48;;;7.10;71.50;;;;;;5056942;28;20028;-39
2021/11/13 05:23:00;;;;;;;37.58;19.40;;;7.10;71.60;;;;;;5056362;28;20087;-38
2021/11/13 05:25:26;;;;;;;37.08;19.77;;;7.10;71.70;;;;;;5055000;28;20412;-38
2021/11/13 05:27:51;;;;;;;41.58;21.02;;;7.10;71.70;;;;;;5055979;28;20036;-40
2021/11/13 05:30:19;;;;;;;43.75;19.50;;;7.10;71.80;;;;;;5057055;28;20091;-39
2021/11/13 05:32:46;;;;;;;34.50;18.30;;;7.10;72.00;;;;;;5055361;28;20075;-39
2021/11/13 05:35:12;;;;;;;34.85;18.52;;;7.10;72.00;;;;;;5056906;28;20323;-37
2021/11/13 05:37:38;;;;;;;40.72;20.95;;;7.10;72.00;;;;;;5056152;28;20067;-38
2021/11/13 05:40:06;;;;;;;32.42;18.60;;;7.20;72.10;;;;;;5056734;28;20025;-39
2021/11/13 05:42:34;;;;;;;49.30;21.17;;;7.20;72.10;;;;;;5055666;28;20045;-39
2021/11/13 05:45:00;;;;;;;34.30;18.40;;;7.20;72.00;;;;;;5056507;28;20033;-39
2021/11/13 05:47:26;;;;;;;39.75;21.38;;;7.20;72.00;;;;;;5056068;28;20036;-38
2021/11/13 05:49:51;;;;;;;36.22;17.33;;;7.20;72.10;;;;;;5048574;28;20322;-38
2021/11/13 05:52:18;;;;;;;38.10;19.90;;;7.30;72.10;;;;;;5039368;28;20160;-38
2021/11/13 05:54:44;;;;;;;36.70;19.40;;;7.30;72.20;;;;;;5036102;28;20033;-40
2021/11/13 05:57:11;;;;;;;42.55;20.42;;;7.30;72.20;;;;;;5035755;28;20026;-37
2021/11/13 05:59:37;;;;;;;36.65;19.38;;;7.30;72.20;;;;;;5036261;28;20040;-40
2021/11/13 06:02:03;;;;;;;44.05;19.42;;;7.30;72.20;;;;;;5034769;28;20029;-40
2021/11/13 06:04:29;;;;;;;51.97;22.52;;;7.40;72.30;;;;;;5036254;28;20033;-40
2021/11/13 06:06:54;;;;;;;52.97;24.63;;;7.40;72.40;;;;;;5035705;28;20034;-38
2021/11/13 06:09:20;;;;;;;58.45;23.88;;;7.40;72.40;;;;;;5036097;28;20100;-38
2021/11/13 06:11:45;;;;;;;45.47;21.40;;;7.50;72.40;;;;;;5035439;28;20038;-38
2021/11/13 06:14:11;;;;;;;38.05;19.92;;;7.50;72.40;;;;;;5035718;28;20084;-39
2021/11/13 06:16:37;;;;;;;37.13;18.50;;;7.50;72.30;;;;;;5035231;28;20036;-38
2021/11/13 06:19:02;;;;;;;39.22;20.20;;;7.60;72.30;;;;;;5035505;28;20104;-39
2021/11/13 06:21:28;;;;;;;44.00;20.20;;;7.60;72.30;;;;;;5035597;28;20052;-40
2021/11/13 06:23:54;;;;;;;36.42;20.35;;;7.60;72.30;;;;;;5034514;28;20280;-40
2021/11/13 06:26:19;;;;;;;34.55;18.70;;;7.70;72.20;;;;;;5034563;28;20460;-40
2021/11/13 06:28:45;;;;;;;37.30;19.42;;;7.70;72.10;;;;;;5035818;28;20033;-38
2021/11/13 06:31:11;;;;;;;42.65;21.63;;;7.80;72.20;;;;;;5035141;28;20038;-38
2021/11/13 06:33:37;;;;;;;37.45;23.13;;;7.80;72.10;;;;;;5036392;28;20468;-40
2021/11/13 06:36:04;;;;;;;47.92;22.08;;;7.90;72.00;;;;;;5046599;28;20033;-40
2021/11/13 06:38:30;;;;;;;44.30;21.67;;;7.90;72.10;;;;;;5037680;28;20055;-38
2021/11/13 06:40:56;;;;;;;48.28;22.77;;;8.00;72.10;;;;;;5035139;28;20030;-38
2021/11/13 06:43:22;;;;;;;49.03;23.35;;;8.00;72.00;;;;;;5053221;28;20075;-38
2021/11/13 06:45:47;;;;;;;35.80;19.33;;;8.10;72.00;;;;;;5055104;28;20056;-38
2021/11/13 06:48:14;;;;;;;41.92;19.88;;;8.10;71.90;;;;;;5051752;28;20420;-40
2021/11/13 06:50:40;;;;;;;45.28;22.40;;;8.20;71.80;;;;;;5035147;28;20068;-40
2021/11/13 06:53:07;;;;;;;33.28;17.48;;;8.20;71.70;;;;;;5035586;28;20057;-38
2021/11/13 06:55:32;;;;;;;32.45;16.85;;;8.30;71.30;;;;;;5035139;28;20457;-38
2021/11/13 06:57:58;;;;;;;31.83;17.70;;;8.40;71.20;;;;;;5034934;28;20109;-38
2021/11/13 07:00:24;;;;;;;31.40;18.60;;;8.40;70.80;;;;;;5035274;28;20052;-39
2021/11/13 07:02:52;;;;;;;27.35;15.50;;;8.50;70.60;;;;;;5035255;28;20104;-40
2021/11/13 07:05:18;;;;;;;35.00;14.55;;;8.50;70.40;;;;;;5035672;28;20114;-40
2021/11/13 07:07:44;;;;;;;32.05;15.20;;;8.50;69.90;;;;;;5035037;28;20091;-37
2021/11/13 07:10:12;;;;;;;29.33;14.15;;;8.60;69.70;;;;;;5035602;28;20033;-38
2021/11/13 07:12:39;;;;;;;30.73;15.18;;;8.60;69.50;;;;;;5034883;28;20084;-40
2021/11/13 07:15:05;;;;;;;30.92;13.68;;;8.60;69.30;;;;;;5035688;28;20033;-37
2021/11/13 07:17:31;;;;;;;33.17;13.63;;;8.70;69.30;;;;;;5035426;28;20029;-38
2021/11/13 07:19:57;;;;;;;25.80;14.02;;;8.70;68.80;;;;;;5035371;28;20406;-41
2021/11/13 07:22:24;;;;;;;25.15;13.43;;;8.70;68.60;;;;;;5034762;28;20353;-40
2021/11/13 07:24:49;;;;;;;24.27;13.15;;;8.70;68.30;;;;;;5035222;28;20030;-40
2021/11/13 07:27:16;;;;;;;25.27;13.52;;;8.80;68.40;;;;;;5034686;28;20432;-39
2021/11/13 07:29:46;;;;;;;29.92;12.55;;;8.80;68.20;;;;;;5035150;28;20033;-39
2021/11/13 07:32:14;;;;;;;23.75;12.75;;;8.70;68.10;;;;;;5035079;28;20038;-39
2021/11/13 07:34:41;;;;;;;35.55;14.02;;;8.80;68.00;;;;;;5034822;28;20041;-39
2021/11/13 07:37:07;;;;;;;24.83;13.02;;;8.80;67.90;;;;;;5035292;28;20436;-37
2021/11/13 07:39:33;;;;;;;27.08;11.95;;;8.80;67.90;;;;;;5035390;28;20402;-40
2021/11/13 07:41:59;;;;;;;28.10;13.05;;;8.80;67.80;;;;;;5057686;28;20052;-37
2021/11/13 07:44:25;;;;;;;23.63;12.73;;;8.80;67.60;;;;;;5058504;28;20033;-40
2021/11/13 07:46:51;;;;;;;21.83;12.93;;;8.80;67.50;;;;;;5057723;28;20025;-38
2021/11/13 07:49:16;;;;;;;26.45;13.38;;;8.70;67.50;;;;;;5058410;28;20037;-41
2021/11/13 07:51:42;;;;;;;21.13;13.00;;;8.70;67.40;;;;;;5056668;28;20029;-40
2021/11/13 07:54:10;;;;;;;25.40;13.68;;;8.70;67.50;;;;;;5058150;28;20029;-42
2021/11/13 07:56:37;;;;;;;30.15;14.98;;;8.70;67.40;;;;;;5057197;28;20032;-38
2021/11/13 07:59:03;;;;;;;28.85;13.98;;;8.70;67.50;;;;;;5058206;28;20334;-38
2021/11/13 08:01:29;;;;;;;22.50;13.07;;;8.80;67.50;;;;;;5057073;28;20429;-37
2021/11/13 08:03:55;;;;;;;23.45;13.27;;;8.70;67.40;;;;;;5056531;28;20029;-40
2021/11/13 08:06:21;;;;;;;25.23;13.32;;;8.80;67.50;;;;;;5057210;28;20083;-40
2021/11/13 08:08:46;;;;;;;24.33;13.98;;;8.80;67.40;;;;;;5057583;28;20037;-40
2021/11/13 08:11:12;;;;;;;22.30;13.27;;;8.80;67.20;;;;;;5057274;28;20406;-38
2021/11/13 08:13:40;;;;;;;22.52;12.20;;;8.80;67.20;;;;;;5057413;28;20383;-38
2021/11/13 08:16:05;;;;;;;27.52;13.95;;;8.90;67.20;;;;;;5057050;28;20374;-36
2021/11/13 08:18:31;;;;;;;27.98;15.68;;;8.90;67.40;;;;;;5057817;28;20033;-36
2021/11/13 08:20:59;;;;;;;28.15;15.60;;;8.90;67.70;;;;;;5057192;28;20025;-37
2021/11/13 08:23:25;;;;;;;27.27;15.40;;;8.90;67.90;;;;;;5057744;28;20036;-41
2021/11/13 08:25:52;;;;;;;27.58;15.15;;;8.90;68.10;;;;;;5057728;28;20033;-37
2021/11/13 08:28:19;;;;;;;33.05;17.02;;;8.90;68.00;;;;;;5057362;28;20033;-38
2021/11/13 08:30:46;;;;;;;36.92;17.85;;;9.00;68.00;;;;;;5057325;28;20029;-38
2021/11/13 08:33:13;;;;;;;23.05;13.55;;;9.00;68.20;;;;;;5057220;28;20369;-37
2021/11/13 08:35:40;;;;;;;29.17;15.50;;;9.00;68.20;;;;;;5057168;28;20108;-37
2021/11/13 08:38:07;;;;;;;25.15;14.52;;;9.00;68.10;;;;;;5056937;28;20013;-37
2021/11/13 08:40:33;;;;;;;26.42;14.85;;;9.00;67.90;;;;;;5057028;28;20100;-39
2021/11/13 08:42:59;;;;;;;30.05;14.43;;;9.00;68.00;;;;;;5056587;28;20053;-40
2021/11/13 08:45:25;;;;;;;33.30;16.02;;;9.00;68.00;;;;;;5055476;28;20040;-39
2021/11/13 08:47:51;;;;;;;31.80;16.73;;;9.00;68.30;;;;;;5056647;28;20024;-37
2021/11/13 08:50:23;;;;;;;32.33;15.93;;;9.00;68.40;;;;;;5056498;28;20274;-41
2021/11/13 08:52:51;;;;;;;33.47;15.75;;;9.00;68.50;;;;;;5056943;28;20033;-38
2021/11/13 08:55:18;;;;;;;31.67;16.50;;;9.10;68.60;;;;;;5057487;28;20136;-37
2021/11/13 08:57:45;;;;;;;26.95;15.23;;;9.00;68.60;;;;;;5056890;28;20091;-40
2021/11/13 09:00:13;;;;;;;28.02;15.48;;;9.10;68.70;;;;;;5057299;28;20423;-38
2021/11/13 09:02:39;;;;;;;40.35;19.98;;;9.10;68.70;;;;;;5056716;28;20040;-37
2021/11/13 09:05:07;;;;;;;32.88;17.15;;;9.10;68.60;;;;;;5056734;28;20039;-38
2021/11/13 09:07:34;;;;;;;33.17;16.27;;;9.10;68.60;;;;;;5056411;28;20033;-40
2021/11/13 09:09:59;;;;;;;30.35;15.23;;;9.20;68.60;;;;;;5057055;28;20045;-41
2021/11/13 09:12:28;;;;;;;32.75;15.93;;;9.20;68.50;;;;;;5056453;28;20508;-41
2021/11/13 09:14:58;;;;;;;29.75;16.50;;;9.20;68.40;;;;;;5056662;28;20436;-38
2021/11/13 09:17:24;;;;;;;28.30;15.88;;;9.10;68.40;;;;;;5056339;28;20049;-41
2021/11/13 09:19:50;;;;;;;29.83;15.82;;;9.20;68.50;;;;;;5056736;28;20032;-39
2021/11/13 09:22:16;;;;;;;28.05;15.98;;;9.20;68.50;;;;;;5056347;28;20021;-40
2021/11/13 09:24:42;;;;;;;30.35;16.67;;;9.20;68.60;;;;;;5056800;28;20087;-38
2021/11/13 09:27:08;;;;;;;31.10;17.45;;;9.20;68.70;;;;;;5055986;28;20029;-39
2021/11/13 09:29:33;;;;;;;28.77;16.33;;;9.30;68.70;;;;;;5056706;28;20087;-40
2021/11/13 09:32:00;;;;;;;33.55;16.77;;;9.30;68.70;;;;;;5056058;28;20056;-41
2021/11/13 09:34:25;;;;;;;30.73;16.35;;;9.30;68.70;;;;;;5056433;28;20037;-40
2021/11/13 09:36:51;;;;;;;28.50;16.30;;;9.30;68.70;;;;;;5054028;28;20116;-38
2021/11/13 09:39:17;;;;;;;28.25;15.05;;;9.40;68.60;;;;;;5046298;28;20033;-39
2021/11/13 09:41:44;;;;;;;34.53;17.23;;;9.40;68.40;;;;;;5035656;28;20041;-39
2021/11/13 09:44:10;;;;;;;26.67;15.73;;;9.50;68.30;;;;;;5036223;28;20037;-40
2021/11/13 09:46:36;;;;;;;26.77;15.68;;;9.50;68.30;;;;;;5035198;28;20108;-39
2021/11/13 09:49:04;;;;;;;32.72;16.27;;;9.50;68.20;;;;;;5035967;28;20041;-38
2021/11/13 09:51:30;;;;;;;37.13;18.73;;;9.50;68.20;;;;;;5035803;28;20104;-38
2021/11/13 09:53:56;;;;;;;30.77;16.52;;;9.50;68.30;;;;;;5036182;28;20358;-40
2021/11/13 09:56:23;;;;;;;27.02;16.20;;;9.50;68.00;;;;;;5035922;28;20338;-38
2021/11/13 09:58:50;;;;;;;30.52;15.63;;;9.60;68.00;;;;;;5035993;28;20108;-38
2021/11/13 10:01:16;;;;;;;43.30;19.08;;;9.60;67.80;;;;;;5035538;28;20036;-39
2021/11/13 10:03:43;;;;;;;35.15;17.40;;;9.60;67.80;;;;;;5035908;28;20025;-37
2021/11/13 10:06:13;;;;;;;27.60;14.95;;;9.70;67.70;;;;;;5035652;28;20055;-39
2021/11/13 10:08:43;;;;;;;27.40;15.00;;;9.70;67.50;;;;;;5041803;28;20033;-39
2021/11/13 10:11:15;;;;;;;33.42;17.83;;;9.70;67.30;;;;;;5053855;28;20028;-37
2021/11/13 10:13:44;;;;;;;27.17;15.23;;;9.70;67.40;;;;;;5041949;28;20059;-37
2021/11/13 10:16:15;;;;;;;29.52;15.60;;;9.80;67.60;;;;;;5040187;28;20026;-38
2021/11/13 10:18:51;;;;;;;28.05;16.30;;;9.80;67.60;;;;;;5035420;28;20040;-37
2021/11/13 10:21:20;;;;;;;32.45;15.27;;;9.80;67.30;;;;;;5034031;28;20140;-40
2021/11/13 10:23:50;;;;;;;27.77;15.25;;;9.80;67.00;;;;;;5035512;28;20124;-40
2021/11/13 10:26:28;;;;;;;28.50;15.30;;;9.80;66.90;;;;;;5034770;28;20126;-40
2021/11/13 10:29:05;;;;;;;25.13;14.70;;;9.80;66.90;;;;;;5035350;28;20064;-36
2021/11/13 10:31:32;;;;;;;38.60;17.90;;;9.90;66.90;;;;;;5035070;28;20048;-36
2021/11/13 10:34:06;;;;;;;30.48;16.33;;;9.90;67.10;;;;;;5035360;28;20427;-38
2021/11/13 10:36:40;;;;;;;36.67;20.27;;;9.90;66.80;;;;;;5034819;28;20041;-37
2021/11/13 10:39:10;;;;;;;29.08;16.17;;;10.00;67.00;;;;;;5035294;28;20065;-37
2021/11/13 10:41:53;;;;;;;31.07;15.13;;;10.10;67.50;;;;;;5034737;28;20406;-38
2021/11/13 10:44:47;;;;;;;26.95;15.02;;;10.10;66.30;;;;;;5035072;28;20064;-41
2021/11/13 10:47:21;;;;;;;25.98;14.30;;;10.10;66.20;;;;;;5034399;28;20137;-37
2021/11/13 10:49:50;;;;;;;24.27;13.32;;;10.20;65.80;;;;;;5035325;28;20030;-37
2021/11/13 10:52:17;;;;;;;26.08;14.20;;;10.20;65.50;;;;;;5034795;28;20071;-40
2021/11/13 10:54:46;;;;;;;25.65;14.23;;;10.20;65.40;;;;;;5034642;28;20425;-40
2021/11/13 10:57:12;;;;;;;25.48;14.95;;;10.20;65.20;;;;;;5035099;28;20021;-37
2021/11/13 10:59:42;;;;;;;33.58;15.70;;;10.20;65.20;;;;;;5034217;28;20057;-37
2021/11/13 11:02:15;;;;;;;23.42;12.38;;;10.30;65.10;;;;;;5035024;28;20033;-37
2021/11/13 11:04:44;;;;;;;23.48;13.65;;;10.20;65.00;;;;;;5035271;28;20364;-38
2021/11/13 11:07:23;;;;;;;26.98;13.80;;;10.20;65.00;;;;;;5034810;28;20131;-38
2021/11/13 11:10:10;;;;;;;23.10;13.20;;;10.30;65.10;;;;;;5035123;28;20061;-39
2021/11/13 11:12:38;;;;;;;47.38;24.95;;;10.30;65.10;;;;;;5035943;28;20425;-39
2021/11/13 11:15:13;;;;;;;30.60;17.08;;;10.30;65.10;;;;;;5039071;28;20033;-37
2021/11/13 11:17:42;;;;;;;28.13;15.25;;;10.40;64.90;;;;;;5038709;28;20037;-37
2021/11/13 11:20:17;;;;;;;25.60;14.15;;;10.40;64.70;;;;;;5038975;28;20036;-39
2021/11/13 11:22:44;;;;;;;25.42;13.52;;;10.50;64.50;;;;;;5038304;28;20410;-38
2021/11/13 11:25:12;;;;;;;34.53;18.23;;;10.50;64.40;;;;;;5038793;28;20370;-41
2021/11/13 11:27:43;;;;;;;29.05;15.57;;;10.50;64.40;;;;;;5038301;28;20041;-39
2021/11/13 11:30:09;;;;;;;32.42;16.85;;;10.60;64.40;;;;;;5038914;28;20116;-38
2021/11/13 11:32:49;;;;;;;27.48;15.07;;;10.60;64.30;;;;;;5038215;28;20144;-37
2021/11/13 11:35:31;;;;;;;22.13;12.70;;;10.70;64.60;;;;;;5039053;28;20048;-39
2021/11/13 11:38:06;;;;;;;24.13;13.10;;;10.80;63.90;;;;;;5038289;28;20040;-40
2021/11/13 11:40:36;;;;;;;24.17;13.05;;;10.80;63.70;;;;;;5038137;28;20040;-39
2021/11/13 11:43:03;;;;;;;27.40;14.35;;;10.90;63.60;;;;;;5036777;28;20060;-40
2021/11/13 11:45:31;;;;;;;29.77;15.05;;;10.90;63.50;;;;;;5038167;28;20037;-38
2021/11/13 11:47:58;;;;;;;41.75;19.75;;;11.00;63.30;;;;;;5037871;28;20622;-40
2021/11/13 11:50:29;;;;;;;23.88;15.50;;;11.00;63.30;;;;;;5038296;28;20116;-41
2021/11/13 11:52:56;;;;;;;;;;;11.00;63.30;;;;;;5038268;28;20037;-40
2021/11/13 11:55:22;;;;;;;24.20;14.18;;;11.00;63.50;;;;;;5037829;28;19920;-39
2021/11/13 11:57:55;;;;;;;32.20;17.90;;;11.00;63.40;;;;;;5037785;28;20126;-37
2021/11/13 12:00:24;;;;;;;26.92;15.32;;;11.00;63.20;;;;;;5047636;28;20056;-38
2021/11/13 12:02:55;;;;;;;27.38;15.25;;;11.00;63.20;;;;;;5038485;28;20038;-37
2021/11/13 12:05:23;;;;;;;24.98;15.88;;;11.00;63.20;;;;;;5038173;28;20108;-37
2021/11/13 12:07:50;;;;;;;28.58;15.68;;;11.00;63.20;;;;;;5037535;28;20030;-40
2021/11/13 12:10:28;;;;;;;29.95;16.42;;;11.10;63.20;;;;;;5038059;28;20037;-39
2021/11/13 12:13:23;;;;;;;25.13;14.60;;;11.10;63.10;;;;;;5037602;28;20108;-38
2021/11/13 12:15:50;;;;;;;30.25;15.77;;;11.20;63.20;;;;;;5036541;28;20321;-41
2021/11/13 12:18:23;;;;;;;28.33;16.85;;;11.30;63.30;;;;;;5040962;28;20022;-38
2021/11/13 12:21:03;;;;;;;31.50;16.27;;;11.40;62.90;;;;;;5043819;28;20418;-38
2021/11/13 12:23:33;;;;;;;29.25;15.60;;;11.50;62.80;;;;;;5037040;28;20037;-38
2021/11/13 12:26:08;;;;;;;26.55;16.50;;;11.50;62.40;;;;;;5036573;28;20080;-38
2021/11/13 12:28:37;;;;;;;24.80;14.93;;;11.60;62.20;;;;;;5037610;28;20060;-38
2021/11/13 12:31:06;;;;;;;25.00;14.45;;;11.60;62.00;;;;;;5036925;28;20037;-40
2021/11/13 12:33:32;;;;;;;28.75;14.13;;;11.60;61.80;;;;;;5039106;28;20049;-40
2021/11/13 12:36:13;;;;;;;54.30;35.72;;;11.60;61.60;;;;;;5043714;28;20065;-40
2021/11/13 12:39:02;;;;;;;34.30;19.67;;;11.60;61.50;;;;;;5037490;28;20033;-41